Time;durP1;ratioP1;P1;durP2;ratioP2;P2;SDS_P1;SDS_P2;PMS_P1;PMS_P2;Temp;Humidity;BMP_temperature;BMP_pressure;BME280_temperature;BME280_humidity;BME280_pressure;Samples;Min_cycle;Max_cycle;Signal;HPM_P1;HPM_P2
2022/04/04 00:01:25;;;;;;;;;;;2.50;99.90;;;;;;5070875;28;19925;-77
2022/04/04 00:03:52;;;;;;;;;;;2.50;99.90;;;;;;5070824;28;19936;-76
2022/04/04 00:06:19;;;;;;;;;;;2.50;99.90;;;;;;5070808;28;19925;-77
2022/04/04 00:08:46;;;;;;;;;;;2.40;99.90;;;;;;5070793;28;19924;-75
2022/04/04 00:11:12;;;;;;;;;;;2.40;99.90;;;;;;5070472;28;19924;-76
2022/04/04 00:13:39;;;;;;;;;;;2.30;99.90;;;;;;5070305;28;19986;-76
2022/04/04 00:16:08;;;;;;;;;;;2.30;99.90;;;;;;5070467;28;19935;-76
2022/04/04 00:18:36;;;;;;;;;;;2.30;99.90;;;;;;5070224;28;19930;-76
2022/04/04 00:21:04;;;;;;;;;;;2.30;99.90;;;;;;5070499;28;20331;-76
2022/04/04 00:23:31;;;;;;;;;;;2.30;99.90;;;;;;5070587;28;19982;-76
2022/04/04 00:25:58;;;;;;;;;;;2.30;99.90;;;;;;5070303;28;19932;-76
2022/04/04 00:28:25;;;;;;;;;;;2.20;99.90;;;;;;5069531;28;19925;-76
2022/04/04 00:30:52;;;;;;;;;;;2.20;99.90;;;;;;5070068;28;19924;-76
2022/04/04 00:33:20;;;;;;;;;;;2.20;99.90;;;;;;5070568;28;19925;-76
2022/04/04 00:35:47;;;;;;;;;;;2.20;99.90;;;;;;5070357;28;19931;-76
2022/04/04 00:38:14;;;;;;;;;;;2.10;99.90;;;;;;5070188;28;19928;-76
2022/04/04 00:40:41;;;;;;;;;;;2.10;99.90;;;;;;5070420;28;19924;-76
2022/04/04 00:43:08;;;;;;;;;;;2.10;99.90;;;;;;5070539;28;19966;-76
2022/04/04 00:45:35;;;;;;;;;;;2.00;99.90;;;;;;5070110;28;19932;-76
2022/04/04 00:48:01;;;;;;;;;;;2.00;99.90;;;;;;5070450;28;19932;-75
2022/04/04 00:50:30;;;;;;;;;;;2.00;99.90;;;;;;5069778;28;19924;-75
2022/04/04 00:52:56;;;;;;;;;;;2.00;99.90;;;;;;5070408;28;19932;-76
2022/04/04 00:55:23;;;;;;;;;;;2.00;99.90;;;;;;5070348;28;19935;-75
2022/04/04 00:57:51;;;;;;;;;;;2.00;99.90;;;;;;5070116;28;19925;-76
2022/04/04 01:00:19;;;;;;;;;;;1.90;99.90;;;;;;5069801;28;19924;-76
2022/04/04 01:02:46;;;;;;;;;;;1.90;99.90;;;;;;5070029;28;19924;-75
2022/04/04 01:05:14;;;;;;;;;;;1.90;99.90;;;;;;5070085;28;19928;-75
2022/04/04 01:07:43;;;;;;;;;;;1.90;99.90;;;;;;5070225;28;20011;-76
2022/04/04 01:10:10;;;;;;;;;;;1.90;99.90;;;;;;5070749;28;19925;-76
2022/04/04 01:12:37;;;;;;;;;;;1.90;99.90;;;;;;5073854;28;19924;-75
2022/04/04 01:15:04;;;;;;;;;;;2.00;99.90;;;;;;5073679;28;20332;-76
2022/04/04 01:17:31;;;;;;;;;;;2.00;99.90;;;;;;5073570;28;19924;-76
2022/04/04 01:19:58;;;;;;;;;;;2.00;99.90;;;;;;5073270;28;19925;-76
2022/04/04 01:22:25;;;;;;;;;;;1.90;99.90;;;;;;5073460;28;19925;-76
2022/04/04 01:24:53;;;;;;;;;;;1.90;99.90;;;;;;5073153;28;19925;-76
2022/04/04 01:27:20;;;;;;;;;;;1.90;99.90;;;;;;5073755;28;19924;-76
2022/04/04 01:29:47;;;;;;;;;;;1.90;99.90;;;;;;5073424;28;20028;-76
2022/04/04 01:32:14;;;;;;;;;;;1.90;99.90;;;;;;5073256;28;19928;-75
2022/04/04 01:34:41;;;;;;;;;;;1.80;99.90;;;;;;5073387;28;19924;-76
2022/04/04 01:37:08;;;;;;;;;;;1.80;99.90;;;;;;5073172;28;20285;-76
2022/04/04 01:39:35;;;;;;;;;;;1.70;99.90;;;;;;5072734;28;20011;-76
2022/04/04 01:42:04;;;;;;;;;;;1.60;99.90;;;;;;5073509;28;19924;-76
2022/04/04 01:44:30;;;;;;;;;;;1.60;99.90;;;;;;5073128;28;20027;-75
2022/04/04 01:46:58;;;;;;;;;;;1.60;99.90;;;;;;5073005;28;20357;-77
2022/04/04 01:49:25;;;;;;;;;;;1.50;99.90;;;;;;5072941;28;19924;-76
2022/04/04 01:51:51;;;;;;;;;;;1.50;99.90;;;;;;5072942;28;19924;-76
2022/04/04 01:54:18;;;;;;;;;;;1.50;99.90;;;;;;5073046;28;19924;-77
2022/04/04 01:56:45;;;;;;;;;;;1.40;99.90;;;;;;5072900;28;19925;-77
2022/04/04 01:59:13;;;;;;;;;;;1.40;99.90;;;;;;5072309;28;19925;-76
2022/04/04 02:01:41;;;;;;;;;;;1.40;99.90;;;;;;5072921;28;19925;-77
2022/04/04 02:04:10;;;;;;;;;;;1.40;99.90;;;;;;5072532;28;19930;-76
2022/04/04 02:06:37;;;;;;;;;;;1.40;99.90;;;;;;5073071;28;19931;-77
2022/04/04 02:09:03;;;;;;;;;;;1.30;99.90;;;;;;5072437;28;19925;-76
2022/04/04 02:11:30;;;;;;;;;;;1.30;99.90;;;;;;5072868;28;20106;-77
2022/04/04 02:13:58;;;;;;;;;;;1.30;99.90;;;;;;5072568;28;19925;-76
2022/04/04 02:16:27;;;;;;;;;;;1.30;99.90;;;;;;5063548;28;19932;-77
2022/04/04 02:18:54;;;;;;;;;;;1.20;99.90;;;;;;5052225;28;19932;-77
2022/04/04 02:21:20;;;;;;;;;;;1.20;99.90;;;;;;5052116;28;20015;-77
2022/04/04 02:23:48;;;;;;;;;;;1.20;99.90;;;;;;5051379;28;19964;-76
2022/04/04 02:26:15;;;;;;;;;;;1.20;99.90;;;;;;5052264;28;19935;-76
2022/04/04 02:28:41;;;;;;;;;;;1.20;99.90;;;;;;5052450;28;19932;-77
2022/04/04 02:31:08;;;;;;;;;;;1.20;99.90;;;;;;5051939;28;19929;-77
2022/04/04 02:33:37;;;;;;;;;;;1.20;99.90;;;;;;5052247;28;19925;-77
2022/04/04 02:36:04;;;;;;;;;;;1.20;99.90;;;;;;5052087;28;19925;-77
2022/04/04 02:38:31;;;;;;;;;;;1.20;99.90;;;;;;5052436;28;19925;-77
2022/04/04 02:40:58;;;;;;;;;;;1.20;99.90;;;;;;5052097;28;20404;-77
2022/04/04 02:43:25;;;;;;;;;;;1.20;99.90;;;;;;5051935;28;20281;-76
2022/04/04 02:45:52;;;;;;;;;;;1.20;99.90;;;;;;5052173;28;19925;-77
2022/04/04 02:48:19;;;;;;;;;;;1.30;99.90;;;;;;5052015;28;19955;-77
2022/04/04 02:50:48;;;;;;;;;;;1.30;99.90;;;;;;5051711;28;19932;-76
2022/04/04 02:53:15;;;;;;;;;;;1.30;99.90;;;;;;5051789;28;20014;-76
2022/04/04 02:58:26;;;;;;;;;;;1.40;99.90;;;;;;5051801;28;19920;-76
2022/04/04 03:00:53;;;;;;;;;;;1.40;99.90;;;;;;5051231;28;19925;-77
2022/04/04 03:03:20;;;;;;;;;;;1.50;99.90;;;;;;5051828;28;19925;-76
2022/04/04 03:05:48;;;;;;;;;;;1.50;99.90;;;;;;5051182;28;19936;-76
2022/04/04 03:08:15;;;;;;;;;;;1.50;99.90;;;;;;5051601;28;19964;-76
2022/04/04 03:10:42;;;;;;;;;;;1.60;99.90;;;;;;5051305;28;19932;-76
2022/04/04 03:13:09;;;;;;;;;;;1.60;99.90;;;;;;5051424;28;19925;-77
2022/04/04 03:15:37;;;;;;;;;;;1.60;99.90;;;;;;5051185;28;20342;-77
2022/04/04 03:18:04;;;;;;;;;;;1.70;99.90;;;;;;5051537;28;20011;-76
2022/04/04 03:20:32;;;;;;;;;;;1.70;99.90;;;;;;5051301;28;19925;-76
2022/04/04 03:23:00;;;;;;;;;;;1.70;99.90;;;;;;5051349;28;19924;-76
2022/04/04 03:25:27;;;;;;;;;;;1.70;99.90;;;;;;5051249;28;19925;-76
2022/04/04 03:27:55;;;;;;;;;;;1.70;99.90;;;;;;5051386;28;20384;-76
2022/04/04 03:30:23;;;;;;;;;;;1.80;99.90;;;;;;5051454;28;19943;-77
2022/04/04 03:32:51;;;;;;;;;;;1.80;99.90;;;;;;5051340;28;20376;-77
2022/04/04 03:35:18;;;;;;;;;;;1.80;99.90;;;;;;5050875;28;19925;-77
2022/04/04 03:37:46;;;;;;;;;;;1.80;99.90;;;;;;5049946;28;19931;-76
2022/04/04 03:40:16;;;;;;;;;;;1.80;99.90;;;;;;5048599;28;19925;-77
2022/04/04 03:42:44;;;;;;;;;;;1.80;99.90;;;;;;5051138;28;19932;-77
2022/04/04 03:45:12;;;;;;;;;;;1.90;99.90;;;;;;5050883;28;19925;-76
2022/04/04 03:47:39;;;;;;;;;;;1.90;99.90;;;;;;5051069;28;20287;-76
2022/04/04 03:50:07;;;;;;;;;;;2.00;99.90;;;;;;5050787;28;20285;-77
2022/04/04 03:52:34;;;;;;;;;;;2.00;99.90;;;;;;5051219;28;19928;-77
2022/04/04 03:55:00;;;;;;;;;;;2.00;99.90;;;;;;5050844;28;19980;-76
2022/04/04 03:57:29;;;;;;;;;;;2.00;99.90;;;;;;5050976;28;19925;-77
2022/04/04 03:59:56;;;;;;;;;;;2.00;99.90;;;;;;5050726;28;20346;-77
2022/04/04 04:02:22;;;;;;;;;;;2.00;99.90;;;;;;5051147;28;19925;-77
2022/04/04 04:04:49;;;;;;;;;;;2.00;99.90;;;;;;5050599;28;19925;-77
2022/04/04 04:07:18;;;;;;;;;;;2.10;99.90;;;;;;5050747;28;20028;-77
2022/04/04 04:09:45;;;;;;;;;;;2.10;99.90;;;;;;5050864;28;20284;-77
2022/04/04 04:12:12;;;;;;;;;;;2.10;99.90;;;;;;5052254;28;19932;-76
2022/04/04 04:14:40;;;;;;;;;;;2.20;99.90;;;;;;5050523;28;19925;-77
2022/04/04 04:17:08;;;;;;;;;;;2.20;99.90;;;;;;5051015;28;19951;-77
2022/04/04 04:22:20;;;;;;;;;;;2.20;99.90;;;;;;5050929;28;19925;-77
2022/04/04 04:24:46;;;;;;;;;;;2.20;99.90;;;;;;5050491;28;19970;-77
2022/04/04 04:27:14;;;;;;;;;;;2.20;99.90;;;;;;5050932;28;19946;-77
2022/04/04 04:29:42;;;;;;;;;;;2.20;99.90;;;;;;5050484;28;19974;-77
2022/04/04 04:32:09;;;;;;;;;;;2.20;99.90;;;;;;5050486;28;19925;-77
2022/04/04 04:34:36;;;;;;;;;;;2.20;99.90;;;;;;5050207;28;19929;-77
2022/04/04 04:37:03;;;;;;;;;;;2.20;99.90;;;;;;5050449;28;19925;-75
2022/04/04 04:39:30;;;;;;;;;;;2.20;99.90;;;;;;5050249;28;19925;-77
2022/04/04 04:41:57;;;;;;;;;;;2.20;99.90;;;;;;5050631;28;19932;-77
2022/04/04 04:44:23;;;;;;;;;;;2.10;99.90;;;;;;5049878;28;19925;-76
2022/04/04 04:46:53;;;;;;;;;;;2.10;99.90;;;;;;5054153;28;19925;-77
2022/04/04 04:49:20;;;;;;;;;;;2.10;99.90;;;;;;5054224;28;19968;-77
2022/04/04 04:51:46;;;;;;;;;;;2.10;99.90;;;;;;5054436;28;19925;-76
2022/04/04 04:54:13;;;;;;;;;;;2.00;99.90;;;;;;5054072;28;20019;-77
2022/04/04 04:56:40;;;;;;;;;;;2.10;99.90;;;;;;5054185;28;19924;-77
2022/04/04 04:59:07;;;;;;;;;;;2.10;99.90;;;;;;5054163;28;20312;-77
2022/04/04 05:01:34;;;;;;;;;;;2.00;99.90;;;;;;5053261;28;20304;-76
2022/04/04 05:04:02;;;;;;;;;;;2.00;99.90;;;;;;5053783;28;19933;-81
2022/04/04 05:06:29;;;;;;;;;;;2.10;99.90;;;;;;5060742;28;19925;-81
2022/04/04 05:08:58;;;;;;;;;;;2.10;99.90;;;;;;5058560;28;19929;-80
2022/04/04 05:11:24;;;;;;;;;;;2.10;99.90;;;;;;5060036;28;19925;-79
2022/04/04 05:13:51;;;;;;;;;;;2.10;99.90;;;;;;5055820;28;19928;-76
2022/04/04 05:16:18;;;;;;;;;;;2.10;99.90;;;;;;5054260;28;20281;-75
2022/04/04 05:18:45;;;;;;;;;;;2.10;99.90;;;;;;5054127;28;19947;-75
2022/04/04 05:21:14;;;;;;;;;;;2.20;99.90;;;;;;5054363;28;19925;-75
2022/04/04 05:23:41;;;;;;;;;;;2.20;99.90;;;;;;5053911;28;19936;-75
2022/04/04 05:26:08;;;;;;;;;;;2.20;99.90;;;;;;5053888;28;19975;-76
2022/04/04 05:28:34;;;;;;;;;;;2.30;99.90;;;;;;5053919;28;19924;-75
2022/04/04 05:31:04;;;;;;;;;;;2.40;99.90;;;;;;5053565;28;19931;-75
2022/04/04 05:33:31;;;;;;;;;;;2.40;99.90;;;;;;5053710;28;19964;-75
2022/04/04 05:35:57;;;;;;;;;;;2.50;99.90;;;;;;5053937;28;19925;-76
2022/04/04 05:38:26;;;;;;;;;;;2.50;99.90;;;;;;5053238;28;19929;-76
2022/04/04 05:40:53;;;;;;;;;;;2.50;99.90;;;;;;5053179;28;20355;-75
2022/04/04 05:43:20;;;;;;;;;;;2.50;99.90;;;;;;5053236;28;19925;-76
2022/04/04 05:45:48;;;;;;;;;;;2.60;99.90;;;;;;5053267;28;19928;-76
2022/04/04 05:48:15;;;;;;;;;;;2.60;99.90;;;;;;5053366;28;19924;-76
2022/04/04 05:50:42;;;;;;;;;;;2.70;99.90;;;;;;5053240;28;19931;-76
2022/04/04 05:53:10;;;;;;;;;;;2.70;99.90;;;;;;5053567;28;20403;-76
2022/04/04 05:55:38;;;;;;;;;;;2.70;99.90;;;;;;5052308;28;19930;-76
2022/04/04 05:58:05;;;;;;;;;;;2.80;99.90;;;;;;5053275;28;19979;-76
2022/04/04 06:00:32;;;;;;;;;;;2.80;99.90;;;;;;5053014;28;19924;-76
2022/04/04 06:02:59;;;;;;;;;;;2.80;99.90;;;;;;5052578;28;19924;-76
2022/04/04 06:05:26;;;;;;;;;;;2.90;99.90;;;;;;5051617;28;19925;-76
2022/04/04 06:07:53;;;;;;;;;;;2.90;99.90;;;;;;5051838;28;19964;-77
2022/04/04 06:10:20;;;;;;;;;;;2.90;99.90;;;;;;5053182;28;19925;-77
2022/04/04 06:12:48;;;;;;;;;;;3.00;99.90;;;;;;5052570;28;19928;-77
2022/04/04 06:15:15;;;;;;;;;;;3.00;99.90;;;;;;5051217;28;19936;-77
2022/04/04 06:17:42;;;;;;;;;;;3.00;99.90;;;;;;5052207;28;20319;-75
2022/04/04 06:20:09;;;;;;;;;;;3.10;99.90;;;;;;5050224;28;19924;-76
2022/04/04 06:22:37;;;;;;;;;;;3.10;99.90;;;;;;5050630;28;19971;-76
2022/04/04 06:25:04;;;;;;;;;;;3.20;99.90;;;;;;5048295;28;20023;-77
2022/04/04 06:27:31;;;;;;;;;;;3.20;99.90;;;;;;5049525;28;19972;-77
2022/04/04 06:29:59;;;;;;;;;;;3.30;99.90;;;;;;5050932;28;19968;-76
2022/04/04 06:32:26;;;;;;;;;;;3.30;99.90;;;;;;5052368;28;19982;-76
2022/04/04 06:34:53;;;;;;;;;;;3.40;99.90;;;;;;5051883;28;19931;-76
2022/04/04 06:37:20;;;;;;;;;;;3.50;99.90;;;;;;5049639;28;20024;-75
2022/04/04 06:39:47;;;;;;;;;;;3.60;99.90;;;;;;5051602;28;19928;-76
2022/04/04 06:42:14;;;;;;;;;;;3.70;99.90;;;;;;5051761;28;19931;-77
2022/04/04 06:44:42;;;;;;;;;;;3.80;99.90;;;;;;5049252;28;20028;-76
2022/04/04 06:47:10;;;;;;;;;;;3.90;99.90;;;;;;5045227;28;20416;-76
2022/04/04 06:49:37;;;;;;;;;;;4.10;99.90;;;;;;5051300;28;19936;-76
2022/04/04 06:52:04;;;;;;;;;;;4.10;99.90;;;;;;5052048;28;19936;-77
2022/04/04 06:54:32;;;;;;;;;;;4.20;99.90;;;;;;5051197;28;19978;-76
2022/04/04 06:56:59;;;;;;;;;;;4.30;99.90;;;;;;5051442;28;19971;-76
2022/04/04 06:59:26;;;;;;;;;;;4.40;99.90;;;;;;5051208;28;19925;-76
2022/04/04 07:01:52;;;;;;;;;;;4.40;99.90;;;;;;5051730;28;19925;-76
2022/04/04 07:04:21;;;;;;;;;;;4.50;99.90;;;;;;5051774;28;19935;-76
2022/04/04 07:06:48;;;;;;;;;;;4.50;99.90;;;;;;5051755;28;19929;-76
2022/04/04 07:09:14;;;;;;;;;;;4.50;99.90;;;;;;5051489;28;19924;-74
2022/04/04 07:11:42;;;;;;;;;;;4.50;99.90;;;;;;5068771;28;19932;-73
2022/04/04 07:14:10;;;;;;;;;;;4.50;99.90;;;;;;5051719;28;20002;-75
2022/04/04 07:16:37;;;;;;;;;;;4.50;99.90;;;;;;5051668;28;20025;-74
2022/04/04 07:19:05;;;;;;;;;;;4.60;99.90;;;;;;5050771;28;20031;-76
2022/04/04 07:21:33;;;;;;;;;;;4.60;99.90;;;;;;5053506;28;19976;-76
2022/04/04 07:24:00;;;;;;;;;;;;;;;;;;5050883;28;19925;-78
2022/04/04 07:26:29;;;;;;;;;;;5.00;99.90;;;;;;5051497;28;19924;-76
2022/04/04 07:28:56;;;;;;;;;;;5.20;99.90;;;;;;5051649;28;19974;-75
2022/04/04 07:31:23;;;;;;;;;;;;;;;;;;5056590;28;19936;-80
2022/04/04 07:33:50;;;;;;;;;;;5.10;99.90;;;;;;5056669;28;19924;-78
2022/04/04 07:36:17;;;;;;;;;;;5.20;99.90;;;;;;5055180;28;19925;-79
2022/04/04 07:38:44;;;;;;;;;;;;;;;;;;5053711;28;20009;-79
2022/04/04 07:41:12;;;;;;;;;;;5.20;99.90;;;;;;5054251;28;19924;-79
2022/04/04 07:43:39;;;;;;;;;;;5.10;99.90;;;;;;5055196;28;19931;-79
2022/04/04 07:46:06;;;;;;;;;;;5.20;99.90;;;;;;5055407;28;19924;-79
2022/04/04 07:48:37;;;;;;;;;;;5.30;99.90;;;;;;5055237;28;19994;-79
2022/04/04 07:51:04;;;;;;;;;;;5.30;99.90;;;;;;5053962;28;19964;-78
2022/04/04 07:53:31;;;;;;;;;;;;;;;;;;5049427;28;19932;-77
2022/04/04 07:55:58;;;;;;;;;;;5.30;99.90;;;;;;5053396;28;19932;-77
2022/04/04 07:58:26;;;;;;;;;;;5.30;99.90;;;;;;5053300;28;19932;-77
2022/04/04 08:00:54;;;;;;;;;;;5.40;99.90;;;;;;5054379;28;19931;-78
2022/04/04 08:03:22;;;;;;;;;;;5.50;99.90;;;;;;5054332;28;19925;-77
2022/04/04 08:05:49;;;;;;;;;;;5.60;99.90;;;;;;5051115;28;19929;-77
2022/04/04 08:08:16;;;;;;;;;;;5.60;99.90;;;;;;5051747;28;19925;-77
2022/04/04 08:10:43;;;;;;;;;;;5.70;99.90;;;;;;5048100;28;19925;-78
2022/04/04 08:13:10;;;;;;;;;;;5.70;99.90;;;;;;5052233;28;19929;-76
2022/04/04 08:15:38;;;;;;;;;;;5.70;99.90;;;;;;5053957;28;19932;-77
2022/04/04 08:18:05;;;;;;;;;;;;;;;;;;5054415;28;19942;-78
2022/04/04 08:20:32;;;;;;;;;;;;;;;;;;5055360;28;19925;-78
2022/04/04 08:23:00;;;;;;;;;;;6.00;99.90;;;;;;5055130;28;20023;-76
2022/04/04 08:25:27;;;;;;;;;;;6.00;99.90;;;;;;5056115;28;19931;-77
2022/04/04 08:27:54;;;;;;;;;;;5.90;99.90;;;;;;5070617;28;19931;-78
2022/04/04 08:30:21;;;;;;;;;;;;;;;;;;5065445;28;19932;-78
2022/04/04 08:32:48;;;;;;;;;;;;;;;;;;5064287;28;20000;-78
2022/04/04 08:35:16;;;;;;;;;;;;;;;;;;5063716;28;19975;-78
2022/04/04 08:37:46;;;;;;;;;;;6.20;99.90;;;;;;5063256;28;19929;-77
2022/04/04 08:40:14;;;;;;;;;;;6.20;99.90;;;;;;5063685;28;19925;-78
2022/04/04 08:42:41;;;;;;;;;;;6.30;99.90;;;;;;5064126;28;20396;-77
2022/04/04 08:45:09;;;;;;;;;;;6.30;99.90;;;;;;5064658;28;19996;-78
2022/04/04 08:47:37;;;;;;;;;;;;;;;;;;5065535;28;19924;-78
2022/04/04 08:50:04;;;;;;;;;;;6.40;99.90;;;;;;5062992;28;19932;-78
2022/04/04 08:52:31;;;;;;;;;;;;;;;;;;5063496;28;19931;-78
2022/04/04 08:54:59;;;;;;;;;;;6.40;99.90;;;;;;5063017;28;19929;-78
2022/04/04 08:57:27;;;;;;;;;;;;;;;;;;5062746;28;19924;-77
2022/04/04 08:59:54;;;;;;;;;;;;;;;;;;5064712;28;20000;-78
2022/04/04 09:02:21;;;;;;;;;;;;;;;;;;5063055;28;20432;-77
2022/04/04 09:04:51;;;;;;;;;;;6.40;99.90;;;;;;5063575;28;19934;-77
2022/04/04 09:07:21;;;;;;;;;;;;;;;;;;5062121;28;19928;-76
2022/04/04 09:09:49;;;;;;;;;;;6.60;99.90;;;;;;5052755;28;20393;-75
2022/04/04 09:12:16;;;;;;;;;;;;;;;;;;5048392;28;19999;-76
2022/04/04 09:14:45;;;;;;;;;;;6.70;99.90;;;;;;5060692;28;20315;-76
2022/04/04 09:17:12;;;;;;;;;;;6.80;99.90;;;;;;5065846;28;19931;-76
2022/04/04 09:19:39;;;;;;;;;;;6.90;99.90;;;;;;5066366;28;19939;-76
2022/04/04 09:22:07;;;;;;;;;;;6.80;99.90;;;;;;5066775;28;19936;-76
2022/04/04 09:24:43;;;;;;;;;;;6.80;99.90;;;;;;5066358;28;19988;-75
2022/04/04 09:27:12;;;;;;;;;;;6.90;99.90;;;;;;5065289;28;19925;-75
2022/04/04 09:29:41;;;;;;;;;;;6.90;99.90;;;;;;5067653;28;19925;-75
2022/04/04 09:32:12;;;;;;;;;;;6.90;99.90;;;;;;5077146;28;20003;-75
2022/04/04 09:34:57;;;;;;;;;;;6.90;99.90;;;;;;5087464;28;19925;-75
2022/04/04 09:37:24;;;;;;;;;;;7.20;99.90;;;;;;5086723;28;19960;-75
2022/04/04 09:39:51;;;;;;;;;;;;;;;;;;5085937;28;19928;-75
2022/04/04 09:42:19;;;;;;;;;;;7.30;99.90;;;;;;5087426;28;19924;-75
2022/04/04 09:44:59;;;;;;;;;;;7.30;99.90;;;;;;5086088;28;19925;-75
2022/04/04 09:47:26;;;;;;;;;;;;;;;;;;5084684;28;19924;-75
2022/04/04 09:49:54;;;;;;;;;;;7.30;99.90;;;;;;5084772;28;19931;-75
2022/04/04 09:52:21;;;;;;;;;;;7.50;99.90;;;;;;5085243;28;19929;-76
2022/04/04 09:54:51;;;;;;;;;;;;;;;;;;5081014;28;19925;-76
2022/04/04 09:57:20;;;;;;;;;;;;;;;;;;5080254;28;19925;-76
2022/04/04 09:59:47;;;;;;;;;;;7.70;99.90;;;;;;5078988;28;19924;-75
2022/04/04 10:02:14;;;;;;;;;;;7.90;99.90;;;;;;5078525;28;19925;-75
2022/04/04 10:04:43;;;;;;;;;;;7.80;99.90;;;;;;5078926;28;19925;-75
2022/04/04 10:07:10;;;;;;;;;;;;;;;;;;5082201;28;19940;-76
2022/04/04 10:09:39;;;;;;;;;;;7.60;99.90;;;;;;5061654;28;19929;-75
2022/04/04 10:12:06;;;;;;;;;;;7.60;99.90;;;;;;5057846;28;19928;-76
2022/04/04 10:14:35;;;;;;;;;;;7.70;99.90;;;;;;5059876;28;19925;-76
2022/04/04 10:17:03;;;;;;;;;;;;;;;;;;5060106;28;19925;-77
2022/04/04 10:19:30;;;;;;;;;;;;;;;;;;5057579;28;19932;-75
2022/04/04 10:21:57;;;;;;;;;;;;;;;;;;5055901;28;19928;-76
2022/04/04 10:24:24;;;;;;;;;;;;;;;;;;5055605;28;19924;-76
2022/04/04 10:26:53;;;;;;;;;;;7.60;99.90;;;;;;5054936;28;19928;-76
2022/04/04 10:29:22;;;;;;;;;;;;;;;;;;5054966;28;20439;-76
2022/04/04 10:31:50;;;;;;;;;;;7.40;99.90;;;;;;5055547;28;19928;-75
2022/04/04 10:34:18;;;;;;;;;;;7.50;99.90;;;;;;5055183;28;19932;-76
2022/04/04 10:36:45;;;;;;;;;;;;;;;;;;5050821;28;19971;-75
2022/04/04 10:39:12;;;;;;;;;;;;;;;;;;5057374;28;19925;-75
2022/04/04 10:41:39;;;;;;;;;;;7.30;99.90;;;;;;5057424;28;19928;-75
2022/04/04 10:44:06;;;;;;;;;;;;;;;;;;5056263;28;20292;-75
2022/04/04 10:46:34;;;;;;;;;;;7.10;99.90;;;;;;5058680;28;19924;-75
2022/04/04 10:49:02;;;;;;;;;;;7.10;99.90;;;;;;5057553;28;19924;-75
2022/04/04 10:51:30;;;;;;;;;;;;;;;;;;5058033;28;20392;-75
2022/04/04 10:53:58;;;;;;;;;;;7.10;99.90;;;;;;5057281;28;19925;-73
2022/04/04 10:56:27;;;;;;;;;;;7.10;99.90;;;;;;5058504;28;19979;-73
2022/04/04 10:58:55;;;;;;;;;;;;;;;;;;5053823;28;19924;-75
2022/04/04 11:01:24;;;;;;;;;;;;;;;;;;5051592;28;19924;-75
2022/04/04 11:03:59;;;;;;;;;;;6.90;99.90;;;;;;5055968;28;19946;-75
2022/04/04 11:09:19;;;;;;;;;;;6.90;99.90;;;;;;5048613;28;20004;-75
2022/04/04 11:11:48;;;;;;;;;;;6.90;99.90;;;;;;5049239;28;19924;-75
2022/04/04 11:14:15;;;;;;;;;;;;;;;;;;5053193;28;19963;-75
2022/04/04 11:17:00;;;;;;;;;;;6.80;99.90;;;;;;5054175;28;19929;-76
2022/04/04 11:19:44;;;;;;;;;;;6.70;99.90;;;;;;5053793;28;19931;-77
2022/04/04 11:22:11;;;;;;;;;;;6.70;99.90;;;;;;5053909;28;19964;-78
2022/04/04 11:24:38;;;;;;;;;;;6.70;99.90;;;;;;5054101;28;19931;-77
2022/04/04 11:27:05;;;;;;;;;;;6.60;99.90;;;;;;5054570;28;19932;-77
2022/04/04 11:29:32;;;;;;;;;;;;;;;;;;5053556;28;19929;-76
2022/04/04 11:32:00;;;;;;;;;;;6.30;99.90;;;;;;5053626;28;20444;-77
2022/04/04 11:34:31;;;;;;;;;;;6.30;99.90;;;;;;5054187;28;19925;-77
2022/04/04 11:36:58;;;;;;;;;;;6.40;99.90;;;;;;5053924;28;19929;-77
2022/04/04 11:39:25;;;;;;;;;;;6.50;99.90;;;;;;5054181;28;20038;-77
2022/04/04 11:41:53;;;;;;;;;;;;;;;;;;5054489;28;19983;-77
2022/04/04 11:44:20;;;;;;;;;;;;;;;;;;5054111;28;19932;-77
2022/04/04 11:47:01;;;;;;;;;;;5.70;99.90;;;;;;5055894;28;19925;-77
2022/04/04 11:49:34;;;;;;;;;;;5.50;99.90;;;;;;5056441;28;19925;-77
2022/04/04 11:52:04;;;;;;;;;;;;;;;;;;5057164;28;19971;-77
2022/04/04 11:54:39;;;;;;;;;;;5.30;99.90;;;;;;5056591;28;19970;-77
2022/04/04 11:57:07;;;;;;;;;;;;;;;;;;5056698;28;19932;-77
2022/04/04 11:59:34;;;;;;;;;;;;;;;;;;5056377;28;19924;-78
2022/04/04 12:02:03;;;;;;;;;;;;;;;;;;5058611;28;19932;-77
2022/04/04 12:04:30;;;;;;;;;;;4.90;99.90;;;;;;5056556;28;19924;-78
2022/04/04 12:06:57;;;;;;;;;;;;;;;;;;5055353;28;19925;-78
2022/04/04 12:09:29;;;;;;;;;;;4.80;99.90;;;;;;5055362;28;19943;-78
2022/04/04 12:12:06;;;;;;;;;;;4.70;99.90;;;;;;5057141;28;19932;-78
2022/04/04 12:14:33;;;;;;;;;;;;;;;;;;5050309;28;20065;-78
2022/04/04 12:17:00;;;;;;;;;;;4.60;99.90;;;;;;5057049;28;19925;-78
2022/04/04 12:19:28;;;;;;;;;;;4.50;99.90;;;;;;5056212;28;19925;-78
2022/04/04 12:21:56;;;;;;;;;;;4.50;99.90;;;;;;5056548;28;19925;-78
2022/04/04 12:27:09;;;;;;;;;;;4.50;99.90;;;;;;5057244;28;19913;-78
2022/04/04 12:29:36;;;;;;;;;;;;;;;;;;5057735;28;20369;-78
2022/04/04 12:32:04;;;;;;;;;;;4.40;99.90;;;;;;5057263;28;20453;-78
2022/04/04 12:34:30;;;;;;;;;;;4.40;99.90;;;;;;5056199;28;19932;-79
2022/04/04 12:36:59;;;;;;;;;;;4.40;99.90;;;;;;5055866;28;20347;-78
2022/04/04 12:39:26;;;;;;;;;;;4.40;99.90;;;;;;5055626;28;20300;-79
2022/04/04 12:41:54;;;;;;;;;;;;;;;;;;5056184;28;19925;-79
2022/04/04 12:44:21;;;;;;;;;;;;;;;;;;5051570;28;19936;-77
2022/04/04 12:46:49;;;;;;;;;;;4.40;99.90;;;;;;5065998;28;19932;-78
2022/04/04 12:49:17;;;;;;;;;;;;;;;;;;5053850;28;19925;-77
2022/04/04 12:51:51;;;;;;;;;;;4.50;99.90;;;;;;5054267;28;19925;-77
2022/04/04 12:54:24;;;;;;;;;;;4.50;99.90;;;;;;5054099;28;19940;-79
2022/04/04 12:56:51;;;;;;;;;;;4.40;99.90;;;;;;5054734;28;19925;-78
2022/04/04 12:59:18;;;;;;;;;;;4.50;99.90;;;;;;5054709;28;20281;-78
2022/04/04 13:02:00;;;;;;;;;;;4.40;99.90;;;;;;5056604;28;19925;-77
2022/04/04 13:04:29;;;;;;;;;;;4.50;99.90;;;;;;5055175;28;19929;-78
2022/04/04 13:06:57;;;;;;;;;;;4.50;99.90;;;;;;5054821;28;19955;-78
2022/04/04 13:09:25;;;;;;;;;;;4.50;99.90;;;;;;5055874;28;20400;-79
2022/04/04 13:11:52;;;;;;;;;;;4.60;99.90;;;;;;5056979;28;19996;-81
2022/04/04 13:14:20;;;;;;;;;;;;;;;;;;5057113;28;19924;-80
2022/04/04 13:16:50;;;;;;;;;;;4.70;99.90;;;;;;5057430;28;20019;-79
2022/04/04 13:19:17;;;;;;;;;;;4.70;99.90;;;;;;5058353;28;19928;-78
2022/04/04 13:21:48;;;;;;;;;;;4.80;99.90;;;;;;5059555;28;19932;-77
2022/04/04 13:24:15;;;;;;;;;;;5.00;99.90;;;;;;5058996;28;20402;-78
2022/04/04 13:26:42;;;;;;;;;;;;;;;;;;5058910;28;19931;-77
2022/04/04 13:29:09;;;;;;;;;;;4.90;99.90;;;;;;5058800;28;20475;-77
2022/04/04 13:31:36;;;;;;;;;;;;;;;;;;5059609;28;19931;-77
2022/04/04 13:34:03;;;;;;;;;;;4.90;99.90;;;;;;5058025;28;19952;-76
2022/04/04 13:36:30;;;;;;;;;;;5.00;99.90;;;;;;5057898;28;19925;-76
2022/04/04 13:38:59;;;;;;;;;;;5.00;99.90;;;;;;5056363;28;19925;-75
2022/04/04 13:41:27;;;;;;;;;;;5.00;99.90;;;;;;5056729;28;19932;-76
2022/04/04 13:43:54;;;;;;;;;;;;;;;;;;5056634;28;20043;-76
2022/04/04 13:46:21;;;;;;;;;;;5.00;99.90;;;;;;5056546;28;19929;-76
2022/04/04 13:48:48;;;;;;;;;;;;;;;;;;5050612;28;19983;-76
2022/04/04 13:51:18;;;;;;;;;;;5.00;99.90;;;;;;5055996;28;20536;-76
2022/04/04 13:53:45;;;;;;;;;;;5.00;99.90;;;;;;5049392;28;19928;-76
2022/04/04 13:56:13;;;;;;;;;;;;;;;;;;5041787;28;20462;-76
2022/04/04 13:58:41;;;;;;;;;;;5.10;99.90;;;;;;5047129;28;19925;-75
2022/04/04 14:01:09;;;;;;;;;;;;;;;;;;5044844;28;20447;-77
2022/04/04 14:03:36;;;;;;;;;;;;;;;;;;5070726;28;20009;-76
2022/04/04 14:06:03;;;;;;;;;;;5.10;99.90;;;;;;5056870;28;19925;-75
2022/04/04 14:08:31;;;;;;;;;;;;;;;;;;5048559;28;20309;-75
2022/04/04 14:10:58;;;;;;;;;;;5.20;99.90;;;;;;5058336;28;19971;-78
2022/04/04 14:13:25;;;;;;;;;;;;;;;;;;5057562;28;19928;-77
2022/04/04 14:15:53;;;;;;;;;;;;;;;;;;5053203;28;19925;-78
2022/04/04 14:18:21;;;;;;;;;;;5.20;99.90;;;;;;5056249;28;19925;-75
2022/04/04 14:20:49;;;;;;;;;;;;;;;;;;5056699;28;19931;-75
2022/04/04 14:23:16;;;;;;;;;;;5.40;99.90;;;;;;5057735;28;19933;-76
2022/04/04 14:25:43;;;;;;;;;;;;;;;;;;5055739;28;19929;-75
2022/04/04 14:28:10;;;;;;;;;;;5.30;99.90;;;;;;5052317;28;20303;-77
2022/04/04 14:30:37;;;;;;;;;;;;;;;;;;5056795;28;19993;-76
2022/04/04 14:33:04;;;;;;;;;;;5.30;99.90;;;;;;5056148;28;20411;-76
2022/04/04 14:35:31;;;;;;;;;;;;;;;;;;5053453;28;19948;-76
2022/04/04 14:38:00;;;;;;;;;;;5.30;99.90;;;;;;5053897;28;19925;-76
2022/04/04 14:40:26;;;;;;;;;;;5.30;99.90;;;;;;5055693;28;19929;-76
2022/04/04 14:42:54;;;;;;;;;;;;;;;;;;5056340;28;20028;-76
2022/04/04 14:45:21;;;;;;;;;;;;;;;;;;5055893;28;20052;-76
2022/04/04 14:47:48;;;;;;;;;;;5.10;99.90;;;;;;5055331;28;20019;-76
2022/04/04 14:50:15;;;;;;;;;;;;;;;;;;5055122;28;19933;-76
2022/04/04 14:52:44;;;;;;;;;;;;;;;;;;5055473;28;19931;-76
2022/04/04 14:55:13;;;;;;;;;;;5.00;99.90;;;;;;5055397;28;19925;-76
2022/04/04 14:57:42;;;;;;;;;;;4.90;99.90;;;;;;5057581;28;20391;-78
2022/04/04 15:00:09;;;;;;;;;;;;;;;;;;5059686;28;19933;-78
2022/04/04 15:02:38;;;;;;;;;;;4.80;99.90;;;;;;5055594;28;19924;-76
2022/04/04 15:05:05;;;;;;;;;;;;;;;;;;5055875;28;19925;-76
2022/04/04 15:07:32;;;;;;;;;;;4.60;99.90;;;;;;5054765;28;19983;-76